createdAt,value
2018-02-19T00:02:20.686Z,37.47
2018-02-19T00:04:48.308Z,34.43
2018-02-19T00:07:15.943Z,36.03
2018-02-19T00:09:43.655Z,35.17
2018-02-19T00:12:11.294Z,31.23
2018-02-19T00:14:39.425Z,32.10
2018-02-19T00:17:07.111Z,38.33
2018-02-19T00:19:34.741Z,41.70
2018-02-19T00:22:02.381Z,37.47
2018-02-19T00:24:30.060Z,38.90
2018-02-19T00:26:59.050Z,39.50
2018-02-19T00:29:26.669Z,38.43
2018-02-19T00:31:54.392Z,39.63
2018-02-19T00:34:22.079Z,39.93
2018-02-19T00:36:49.718Z,39.83
2018-02-19T00:39:17.407Z,39.53
2018-02-19T00:41:45.055Z,40.80
2018-02-19T00:44:12.696Z,41.00
2018-02-19T00:46:41.326Z,39.13
2018-02-19T00:49:08.964Z,43.23
2018-02-19T00:51:36.613Z,41.20
2018-02-19T00:54:04.301Z,43.63
2018-02-19T00:56:31.998Z,44.93
2018-02-19T00:58:59.627Z,44.40
2018-02-19T01:01:27.311Z,39.90
2018-02-19T01:03:54.953Z,47.10
2018-02-19T01:06:22.588Z,38.53
2018-02-19T01:08:50.280Z,41.50
2018-02-19T01:11:17.931Z,43.77
2018-02-19T01:13:45.580Z,43.03
2018-02-19T01:16:13.279Z,40.57
2018-02-19T01:18:40.907Z,42.80
2018-02-19T01:23:51.844Z,46.67
2018-02-19T01:26:17.352Z,41.87
2018-02-19T01:28:44.993Z,43.27
2018-02-19T01:31:12.978Z,40.63
2018-02-19T01:33:40.624Z,38.90
2018-02-19T01:36:08.254Z,40.10
2018-02-19T01:38:35.929Z,40.50
2018-02-19T01:41:03.565Z,38.73
2018-02-19T01:43:31.206Z,39.87
2018-02-19T01:45:58.899Z,36.83
2018-02-19T01:48:26.531Z,38.40
2018-02-19T01:50:54.181Z,37.27
2018-02-19T01:53:21.887Z,38.17
2018-02-19T01:55:49.531Z,36.77
2018-02-19T01:58:17.160Z,39.40
2018-02-19T02:00:45.319Z,36.33
2018-02-19T02:03:12.960Z,39.43
2018-02-19T02:05:40.601Z,42.20
2018-02-19T02:08:08.308Z,40.43
2018-02-19T02:10:35.948Z,40.33
2018-02-19T02:13:03.574Z,38.00
2018-02-19T02:15:31.297Z,38.30
2018-02-19T02:17:58.934Z,39.40
2018-02-19T02:20:26.567Z,40.53
2018-02-19T02:22:54.293Z,42.73
2018-02-19T02:25:21.946Z,43.57
2018-02-19T02:27:49.565Z,40.00
2018-02-19T02:30:17.261Z,41.67
2018-02-19T02:32:44.892Z,40.90
2018-02-19T02:35:12.520Z,39.43
2018-02-19T02:37:42.207Z,41.40
2018-02-19T02:40:07.873Z,39.30
2018-02-19T02:42:35.496Z,44.03
2018-02-19T02:45:03.634Z,40.83
2018-02-19T02:50:10.428Z,45.72
2018-02-19T02:52:38.073Z,40.93
2018-02-19T02:55:05.710Z,37.63
2018-02-19T02:57:33.432Z,36.37
2018-02-19T03:00:01.059Z,32.90
2018-02-19T03:02:28.694Z,33.03
2018-02-19T03:04:56.384Z,34.23
2018-02-19T03:07:26.017Z,36.37
2018-02-19T03:09:53.658Z,32.87
2018-02-19T03:12:21.342Z,32.07
2018-02-19T03:14:48.990Z,35.07
2018-02-19T03:17:16.629Z,36.70
2018-02-19T03:19:44.333Z,37.40
2018-02-19T03:22:11.971Z,35.40
2018-02-19T03:24:39.602Z,35.33
2018-02-19T03:27:07.300Z,30.27
2018-02-19T03:29:34.970Z,23.57
2018-02-19T03:32:02.864Z,18.70
2018-02-19T03:34:30.553Z,22.80
2018-02-19T03:37:02.089Z,23.90
2018-02-19T03:39:29.751Z,28.77
2018-02-19T03:41:57.429Z,32.03
2018-02-19T03:44:25.061Z,32.00
2018-02-19T03:46:52.700Z,33.97
2018-02-19T03:49:20.404Z,34.60
2018-02-19T03:51:48.031Z,35.83
2018-02-19T03:54:15.693Z,34.53
2018-02-19T03:56:43.391Z,34.80
2018-02-19T03:59:11.041Z,30.63
2018-02-19T04:01:38.679Z,31.70
2018-02-19T04:04:06.378Z,35.17
2018-02-19T04:09:13.568Z,38.50
2018-02-19T04:11:41.207Z,35.30
2018-02-19T04:14:08.847Z,32.40
2018-02-19T04:16:36.528Z,35.13
2018-02-19T04:19:04.240Z,34.33
2018-02-19T04:21:31.879Z,35.80
2018-02-19T04:23:59.564Z,32.27
2018-02-19T04:26:27.188Z,36.63
2018-02-19T04:28:54.820Z,35.43
2018-02-19T04:31:22.525Z,38.83
2018-02-19T04:33:51.107Z,35.87
2018-02-19T04:36:18.741Z,37.37
2018-02-19T04:38:46.447Z,34.20
2018-02-19T04:41:14.096Z,33.73
2018-02-19T04:43:41.717Z,36.73
2018-02-19T04:48:48.216Z,40.12
2018-02-19T04:51:15.936Z,37.03
2018-02-19T04:53:43.941Z,36.47
2018-02-19T04:56:11.571Z,35.77
2018-02-19T04:58:39.315Z,37.47
2018-02-19T05:01:06.955Z,29.47
2018-02-19T05:03:35.065Z,31.80
2018-02-19T05:06:02.786Z,33.40
2018-02-19T05:08:33.845Z,29.57
2018-02-19T05:11:01.465Z,30.43
2018-02-19T05:13:29.153Z,32.00
2018-02-19T05:15:56.794Z,32.30
2018-02-19T05:18:24.451Z,28.03
2018-02-19T05:20:52.152Z,31.07
2018-02-19T05:23:19.785Z,28.47
2018-02-19T05:25:47.419Z,29.90
2018-02-19T05:28:15.122Z,32.07
2018-02-19T05:30:42.772Z,32.60
2018-02-19T05:33:10.400Z,33.13
2018-02-19T05:35:38.101Z,32.70
2018-02-19T05:38:05.732Z,34.00
2018-02-19T05:40:33.371Z,32.17
2018-02-19T05:43:01.072Z,30.43
2018-02-19T05:45:28.764Z,31.80
2018-02-19T05:47:56.390Z,28.60
2018-02-19T05:50:24.077Z,29.37
2018-02-19T05:52:52.984Z,25.47
2018-02-19T05:55:20.579Z,27.13
2018-02-19T05:57:48.288Z,28.63
2018-02-19T06:02:59.452Z,28.65
2018-02-19T06:08:06.635Z,27.13
2018-02-19T06:10:34.282Z,20.63
2018-02-19T06:13:01.932Z,19.13
2018-02-19T06:15:29.623Z,20.60
2018-02-19T06:17:57.258Z,20.53
2018-02-19T06:20:24.936Z,17.90
2018-02-19T06:22:52.607Z,15.10
2018-02-19T06:27:59.452Z,15.75
2018-02-19T06:30:28.865Z,18.37
2018-02-19T06:32:56.495Z,16.50
2018-02-19T06:35:24.276Z,13.70
2018-02-19T06:37:51.816Z,15.10
2018-02-19T06:40:19.434Z,12.17
2018-02-19T06:42:47.110Z,13.97
2018-02-19T06:45:14.791Z,15.73
2018-02-19T06:47:42.432Z,16.87
2018-02-19T06:50:10.573Z,22.07
2018-02-19T06:52:38.564Z,23.27
2018-02-19T06:55:06.202Z,23.80
2018-02-19T06:57:33.890Z,24.03
2018-02-19T07:00:01.522Z,26.07
2018-02-19T07:02:29.149Z,24.73
2018-02-19T07:04:56.844Z,29.63
2018-02-19T07:07:24.465Z,19.67
2018-02-19T07:09:52.635Z,12.90
2018-02-19T07:12:20.334Z,14.13
2018-02-19T07:14:47.948Z,14.00
2018-02-19T07:17:15.962Z,14.83
2018-02-19T07:19:43.642Z,13.07
2018-02-19T07:22:11.265Z,13.20
2018-02-19T07:24:38.891Z,13.10
2018-02-19T07:27:06.571Z,16.80
2018-02-19T07:29:34.199Z,13.03
2018-02-19T07:32:01.829Z,14.00
2018-02-19T07:34:29.524Z,11.90
2018-02-19T07:39:28.853Z,13.87
2018-02-19T07:41:56.557Z,15.87
2018-02-19T07:44:24.183Z,14.43
2018-02-19T07:46:51.938Z,14.50
2018-02-19T07:49:19.640Z,15.23
2018-02-19T07:54:26.430Z,15.45
2018-02-19T07:56:54.048Z,12.13
2018-02-19T07:59:21.670Z,10.67
2018-02-19T08:01:49.358Z,10.57
2018-02-19T08:04:16.981Z,11.73
2018-02-19T08:06:44.619Z,12.30
2018-02-19T08:09:12.308Z,8.30
2018-02-19T08:11:39.945Z,10.90
2018-02-19T08:14:07.570Z,11.90
2018-02-19T08:16:35.271Z,10.67
2018-02-19T08:19:02.893Z,9.87
2018-02-19T08:21:30.519Z,11.87
2018-02-19T08:23:58.202Z,10.47
2018-02-19T08:26:25.820Z,10.10
2018-02-19T08:28:53.456Z,9.37
2018-02-19T08:31:21.322Z,10.33
2018-02-19T08:33:48.776Z,8.73
2018-02-19T08:36:16.414Z,11.40
2018-02-19T08:38:44.629Z,15.13
2018-02-19T08:41:12.245Z,14.53
2018-02-19T08:43:39.855Z,12.60
2018-02-19T08:46:08.085Z,11.83
2018-02-19T08:48:35.700Z,13.80
2018-02-19T08:51:03.321Z,11.27
2018-02-19T08:53:31.028Z,15.23
2018-02-19T08:55:58.643Z,8.97
2018-02-19T08:58:26.283Z,12.13
2018-02-19T09:00:53.960Z,13.50
2018-02-19T09:03:21.586Z,16.10
2018-02-19T09:05:49.237Z,16.27
2018-02-19T09:08:16.916Z,16.83
2018-02-19T09:10:44.560Z,16.23
2018-02-19T09:13:12.188Z,15.03
2018-02-19T09:15:39.868Z,20.03
2018-02-19T09:20:46.658Z,16.77
2018-02-19T09:23:14.301Z,16.40
2018-02-19T09:25:41.928Z,15.43
2018-02-19T09:28:09.631Z,19.43
2018-02-19T09:30:37.255Z,14.37
2018-02-19T09:33:04.880Z,15.73
2018-02-19T09:35:32.581Z,16.57
2018-02-19T09:38:00.248Z,16.40
2018-02-19T09:40:27.888Z,16.27
2018-02-19T09:42:55.590Z,14.83
2018-02-19T09:45:23.244Z,14.40
2018-02-19T09:47:50.928Z,18.27
2018-02-19T09:50:18.623Z,18.47
2018-02-19T09:52:46.263Z,14.80
2018-02-19T09:55:13.895Z,14.00
2018-02-19T09:57:41.579Z,15.67
2018-02-19T10:00:09.206Z,15.20
2018-02-19T10:02:37.894Z,15.50
2018-02-19T10:05:05.587Z,16.57
2018-02-19T10:07:33.230Z,14.67
2018-02-19T10:10:00.910Z,16.07
2018-02-19T10:12:29.497Z,20.53
2018-02-19T10:14:57.116Z,16.53
2018-02-19T10:17:24.768Z,17.33
2018-02-19T10:19:52.456Z,16.10
2018-02-19T10:22:20.122Z,14.50
2018-02-19T10:24:47.784Z,14.97
2018-02-19T10:27:15.485Z,18.13
2018-02-19T10:29:43.119Z,16.87
2018-02-19T10:32:10.740Z,16.40
2018-02-19T10:34:38.416Z,11.00
2018-02-19T10:37:06.043Z,12.97
2018-02-19T10:42:12.801Z,16.05
2018-02-19T10:44:40.511Z,15.60
2018-02-19T10:47:08.071Z,18.67
2018-02-19T10:49:35.743Z,17.43
2018-02-19T10:52:03.372Z,16.50
2018-02-19T10:54:31.000Z,16.17
2018-02-19T10:56:58.730Z,14.83
2018-02-19T10:59:26.357Z,14.27
2018-02-19T11:01:53.999Z,17.67
2018-02-19T11:04:21.680Z,14.43
2018-02-19T11:06:52.572Z,16.10
2018-02-19T11:09:20.208Z,20.60
2018-02-19T11:11:47.927Z,16.87
2018-02-19T11:14:15.578Z,18.53
2018-02-19T11:16:43.217Z,16.20
2018-02-19T11:19:10.984Z,17.13
2018-02-19T11:21:39.026Z,16.23
2018-02-19T11:24:06.695Z,14.67
2018-02-19T11:26:34.350Z,15.97
2018-02-19T11:29:01.976Z,17.30
2018-02-19T11:31:29.613Z,15.30
2018-02-19T11:33:57.335Z,16.70
2018-02-19T11:36:24.959Z,18.57
2018-02-19T11:38:55.447Z,18.03
2018-02-19T11:41:21.491Z,15.93
2018-02-19T11:43:49.131Z,16.23
2018-02-19T11:46:16.781Z,18.43
2018-02-19T11:48:44.486Z,15.63
2018-02-19T11:51:12.136Z,19.63
2018-02-19T11:53:39.804Z,18.13
2018-02-19T11:56:07.485Z,16.33
2018-02-19T12:01:14.288Z,19.62
2018-02-19T12:03:41.931Z,18.13
2018-02-19T12:06:10.027Z,18.10
2018-02-19T12:08:37.714Z,17.17
2018-02-19T12:11:05.346Z,18.77
2018-02-19T12:13:32.979Z,16.67
2018-02-19T12:16:00.678Z,16.87
2018-02-19T12:18:28.300Z,16.90
2018-02-19T12:20:55.936Z,15.77
2018-02-19T12:23:23.631Z,18.87
2018-02-19T12:25:51.287Z,14.67
2018-02-19T12:28:18.923Z,15.83
2018-02-19T12:30:46.603Z,15.97
2018-02-19T12:33:14.237Z,18.07
2018-02-19T12:35:41.867Z,17.07
2018-02-19T12:38:09.556Z,15.97
2018-02-19T12:40:37.195Z,16.30
2018-02-19T12:43:04.821Z,8.93
2018-02-19T12:45:32.535Z,18.03
2018-02-19T12:48:00.186Z,16.63
2018-02-19T12:50:27.820Z,20.33
2018-02-19T12:52:55.543Z,14.80
2018-02-19T12:55:23.179Z,16.37
2018-02-19T12:57:50.808Z,15.07
2018-02-19T13:00:18.500Z,15.33
2018-02-19T13:02:46.160Z,17.23
2018-02-19T13:05:13.859Z,15.33
2018-02-19T13:07:45.017Z,13.83
2018-02-19T13:10:12.688Z,17.27
2018-02-19T13:12:43.977Z,14.53
2018-02-19T13:15:12.204Z,14.97
2018-02-19T13:17:39.841Z,14.63
2018-02-19T13:20:07.476Z,13.23
2018-02-19T13:25:14.287Z,14.82
2018-02-19T13:27:41.972Z,15.33
2018-02-19T13:30:09.603Z,16.50
2018-02-19T13:32:37.237Z,12.83
2018-02-19T13:35:04.942Z,11.30
2018-02-19T13:37:33.092Z,12.47
2018-02-19T13:40:01.132Z,15.40
2018-02-19T13:42:28.821Z,12.77
2018-02-19T13:44:56.466Z,11.07
2018-02-19T13:47:24.105Z,13.53
2018-02-19T13:49:51.759Z,12.07
2018-02-19T13:52:19.780Z,11.70
2018-02-19T13:54:47.408Z,12.53
2018-02-19T13:57:15.114Z,10.37
2018-02-19T13:59:42.744Z,10.23
2018-02-19T14:02:10.464Z,11.97
2018-02-19T14:04:38.102Z,13.00
2018-02-19T14:07:05.757Z,13.47
2018-02-19T14:09:33.383Z,11.63
2018-02-19T14:12:01.595Z,13.10
2018-02-19T14:14:30.671Z,12.60
2018-02-19T14:16:58.303Z,10.57
2018-02-19T14:19:25.997Z,10.40
2018-02-19T14:21:54.431Z,15.93
2018-02-19T14:24:22.105Z,12.63
2018-02-19T14:26:49.839Z,9.00
2018-02-19T14:29:17.485Z,9.83
2018-02-19T14:31:45.138Z,10.80
2018-02-19T14:34:12.864Z,10.10
2018-02-19T14:36:40.487Z,8.70
2018-02-19T14:41:51.813Z,12.57
2018-02-19T14:44:19.509Z,11.87
2018-02-19T14:46:47.171Z,12.97
2018-02-19T14:49:14.860Z,14.00
2018-02-19T14:51:42.503Z,17.67
2018-02-19T14:54:10.154Z,17.53
2018-02-19T14:56:37.850Z,16.97
2018-02-19T14:59:05.502Z,17.93
2018-02-19T15:01:33.149Z,22.73
2018-02-19T15:04:00.849Z,24.53
2018-02-19T15:06:28.483Z,23.70
2018-02-19T15:08:56.135Z,18.87
2018-02-19T15:11:23.882Z,24.77
2018-02-19T15:13:51.531Z,22.53
2018-02-19T15:16:19.164Z,22.63
2018-02-19T15:18:46.886Z,25.87
2018-02-19T15:21:14.510Z,24.17
2018-02-19T15:23:42.180Z,19.43
2018-02-19T15:26:09.865Z,23.47
2018-02-19T15:28:40.661Z,23.07
2018-02-19T15:31:08.306Z,26.33
2018-02-19T15:33:36.003Z,23.33
2018-02-19T15:36:03.645Z,27.33
2018-02-19T15:38:31.281Z,24.83
2018-02-19T15:40:58.970Z,18.27
2018-02-19T15:43:27.086Z,17.97
2018-02-19T15:45:54.732Z,24.00
2018-02-19T15:48:22.414Z,28.63
2018-02-19T15:50:50.091Z,21.80
2018-02-19T15:55:58.387Z,26.98
2018-02-19T15:58:26.045Z,24.90
2018-02-19T16:00:53.697Z,26.63
2018-02-19T16:03:21.410Z,23.57
2018-02-19T16:05:51.056Z,24.40
2018-02-19T16:08:16.720Z,23.80
2018-02-19T16:10:44.483Z,20.53
2018-02-19T16:13:12.123Z,19.23
2018-02-19T16:15:39.764Z,25.73
2018-02-19T16:18:07.654Z,23.70
2018-02-19T16:20:35.308Z,24.27
2018-02-19T16:23:02.974Z,25.63
2018-02-19T16:25:30.678Z,25.93
2018-02-19T16:27:58.320Z,26.40
2018-02-19T16:30:25.953Z,25.93
2018-02-19T16:32:53.669Z,27.47
2018-02-19T16:35:21.328Z,25.50
2018-02-19T16:37:48.966Z,29.13
2018-02-19T16:40:16.661Z,27.17
2018-02-19T16:42:44.293Z,25.23
2018-02-19T16:45:11.956Z,25.67
2018-02-19T16:47:39.636Z,26.57
2018-02-19T16:50:07.320Z,30.90
2018-02-19T16:52:34.974Z,29.47
2018-02-19T16:55:02.688Z,29.80
2018-02-19T16:57:30.334Z,27.97
2018-02-19T16:59:57.955Z,28.00
2018-02-19T17:02:25.643Z,26.50
2018-02-19T17:04:53.278Z,25.03
2018-02-19T17:07:21.426Z,27.50
2018-02-19T17:12:33.567Z,31.60
2018-02-19T17:15:01.417Z,30.97
2018-02-19T17:17:29.218Z,27.77
2018-02-19T17:19:56.907Z,28.00
2018-02-19T17:22:24.954Z,27.47
2018-02-19T17:24:52.305Z,31.27
2018-02-19T17:27:19.937Z,32.37
2018-02-19T17:29:47.650Z,30.53
2018-02-19T17:32:15.412Z,33.17
2018-02-19T17:34:43.087Z,28.17
2018-02-19T17:37:10.913Z,33.77
2018-02-19T17:39:38.543Z,31.97
2018-02-19T17:42:06.174Z,29.07
2018-02-19T17:44:33.904Z,30.43
2018-02-19T17:47:01.579Z,34.37
2018-02-19T17:49:29.216Z,33.33
2018-02-19T17:51:56.912Z,30.33
2018-02-19T17:54:24.545Z,29.47
2018-02-19T17:56:52.179Z,32.00
2018-02-19T17:59:19.889Z,35.23
2018-02-19T18:01:47.523Z,34.37
2018-02-19T18:04:15.165Z,31.27
2018-02-19T18:06:42.888Z,29.30
2018-02-19T18:09:10.541Z,33.43
2018-02-19T18:11:38.193Z,38.23
2018-02-19T18:14:05.897Z,32.63
2018-02-19T18:16:33.581Z,36.17
2018-02-19T18:19:01.206Z,39.37
2018-02-19T18:21:28.955Z,40.03
2018-02-19T18:23:56.574Z,38.23
2018-02-19T18:29:03.715Z,38.58
2018-02-19T18:31:31.391Z,32.17
2018-02-19T18:33:59.021Z,36.63
2018-02-19T18:36:26.716Z,31.87
2018-02-19T18:38:54.364Z,34.47
2018-02-19T18:41:22.040Z,34.23
2018-02-19T18:43:49.745Z,38.73
2018-02-19T18:46:17.469Z,39.10
2018-02-19T18:48:45.096Z,36.07
2018-02-19T18:51:12.788Z,44.53
2018-02-19T18:53:40.427Z,38.07
2018-02-19T18:56:08.062Z,40.50
2018-02-19T18:58:35.767Z,40.37
2018-02-19T19:01:03.453Z,42.07
2018-02-19T19:03:31.141Z,39.27
2018-02-19T19:06:00.723Z,40.37
2018-02-19T19:11:15.422Z,45.12
2018-02-19T19:13:43.522Z,42.10
2018-02-19T19:16:17.202Z,35.73
2018-02-19T19:18:45.069Z,32.93
2018-02-19T19:21:13.637Z,35.87
2018-02-19T19:23:41.707Z,38.17
2018-02-19T19:26:09.890Z,35.13
2018-02-19T19:28:38.339Z,43.40
2018-02-19T19:31:06.059Z,36.63
2018-02-19T19:33:33.727Z,41.27
2018-02-19T19:36:01.382Z,38.67
2018-02-19T19:38:29.096Z,39.57
2018-02-19T19:40:59.241Z,45.87
2018-02-19T19:43:26.091Z,41.43
2018-02-19T19:45:54.917Z,39.07
2018-02-19T19:48:22.640Z,43.10
2018-02-19T19:50:50.324Z,37.20
2018-02-19T19:53:21.936Z,34.23
2018-02-19T19:55:55.563Z,42.37
2018-02-19T19:58:23.265Z,44.73
2018-02-19T20:00:53.431Z,38.50
2018-02-19T20:06:00.097Z,41.05
2018-02-19T20:08:27.729Z,38.67
2018-02-19T20:10:55.377Z,40.97
2018-02-19T20:13:25.960Z,37.43
2018-02-19T20:15:51.409Z,42.47
2018-02-19T20:18:19.054Z,36.57
2018-02-19T20:20:46.751Z,39.87
2018-02-19T20:23:14.388Z,38.23
2018-02-19T20:25:42.042Z,43.67
2018-02-19T20:28:09.779Z,36.07
2018-02-19T20:30:37.428Z,43.57
2018-02-19T20:33:05.060Z,43.77
2018-02-19T20:35:32.838Z,42.90
2018-02-19T20:38:00.472Z,42.93
2018-02-19T20:40:28.483Z,39.80
2018-02-19T20:42:56.175Z,33.40
2018-02-19T20:45:23.834Z,38.03
2018-02-19T20:47:51.464Z,40.50
2018-02-19T20:50:19.155Z,34.73
2018-02-19T20:55:26.074Z,44.33
2018-02-19T20:57:53.817Z,38.60
2018-02-19T21:00:21.613Z,40.17
2018-02-19T21:02:49.148Z,42.40
2018-02-19T21:05:16.804Z,40.90
2018-02-19T21:07:44.477Z,40.47
2018-02-19T21:10:12.190Z,39.40
2018-02-19T21:12:39.952Z,38.13
2018-02-19T21:15:07.660Z,44.77
2018-02-19T21:17:35.396Z,37.63
2018-02-19T21:20:03.044Z,36.40
2018-02-19T21:22:30.692Z,39.23
2018-02-19T21:24:58.393Z,43.93
2018-02-19T21:30:08.796Z,44.88
2018-02-19T21:32:36.418Z,39.50
2018-02-19T21:35:04.090Z,41.43
2018-02-19T21:37:32.038Z,43.20
2018-02-19T21:42:41.370Z,45.72
2018-02-19T21:45:08.940Z,42.37
2018-02-19T21:47:36.591Z,39.87
2018-02-19T21:50:04.739Z,40.53
2018-02-19T21:52:32.681Z,37.90
2018-02-19T21:55:00.897Z,37.53
2018-02-19T21:57:28.679Z,41.80
2018-02-19T21:59:59.416Z,42.73
2018-02-19T22:02:27.166Z,42.60
2018-02-19T22:04:54.807Z,38.93
2018-02-19T22:07:22.444Z,38.87
2018-02-19T22:09:50.072Z,45.87
2018-02-19T22:12:17.756Z,42.37
2018-02-19T22:14:45.664Z,43.90
2018-02-19T22:17:13.686Z,40.63
2018-02-19T22:19:41.376Z,39.50
2018-02-19T22:24:40.775Z,48.17
2018-02-19T22:27:09.209Z,45.60
2018-02-19T22:29:37.773Z,43.90
2018-02-19T22:32:05.504Z,44.83
2018-02-19T22:34:33.305Z,43.83
2018-02-19T22:37:00.948Z,46.53
2018-02-19T22:39:29.449Z,45.93
2018-02-19T22:41:59.158Z,45.83
2018-02-19T22:44:26.786Z,46.53
2018-02-19T22:46:54.962Z,48.93
2018-02-19T22:49:22.677Z,46.80
2018-02-19T22:51:50.948Z,42.13
2018-02-19T22:54:18.578Z,48.77
2018-02-19T22:56:46.259Z,45.20
2018-02-19T22:59:14.590Z,45.03
2018-02-19T23:01:42.241Z,46.73
2018-02-19T23:04:09.910Z,44.37
2018-02-19T23:06:37.547Z,49.57
2018-02-19T23:11:44.335Z,47.05
2018-02-19T23:14:11.962Z,49.50
2018-02-19T23:16:39.591Z,48.70
2018-02-19T23:19:07.753Z,48.23
2018-02-19T23:21:35.383Z,45.13
2018-02-19T23:24:03.017Z,45.50
2018-02-19T23:26:30.723Z,47.40
2018-02-19T23:28:58.345Z,46.90
2018-02-19T23:31:26.360Z,48.43
2018-02-19T23:33:54.047Z,51.43
2018-02-19T23:36:21.677Z,47.93
2018-02-19T23:38:49.301Z,48.90
2018-02-19T23:41:16.971Z,46.17
2018-02-19T23:43:44.591Z,48.10
2018-02-19T23:46:12.215Z,47.87
2018-02-19T23:48:39.892Z,47.07
2018-02-19T23:51:07.516Z,46.27
2018-02-19T23:53:35.144Z,52.27
2018-02-19T23:56:02.860Z,47.23
2018-02-19T23:58:30.500Z,46.43
